x

Western Prince William Sound (46081) Weather Station

4:50am - Sat 21st Jan 2017 All times are UTC.

  • Wind
    7mph, 11mph gusts
  • Sea Temp 43°f
  • Air Temp 27°f
  • Sea Pressure 1001.1mb

More Historic Weather Station data

Upgrade to MSW Pro to gain access to the past 30 days of data for over 8000 Wavebouys and Weather Stations around the globe.

Join Pro

Comparision Forecast

View Surf forecast
   
Sat 01/21 4:50am  -   -   -  7 11 mph 1001.1mb 43f 27f
3:50am  -   -   -  9
mph
- - -
12:50am  -   -   -  13 16 mph 1001.6mb 42f 28f
Fri 01/20 8:50pm  -   -   -  2 7 mph 1002.2mb 42f 26f
7:50pm  -   -  3s 4 7 mph 1002mb 42f 26f
6:50pm  -   -  3s 7 11 mph 1002mb 42f 26f
5:50pm  -   -  3s 9 11 mph 1001.8mb 42f 25f
4:50pm  -   -   -  7
mph
1001.5mb - 25f
3:50pm  -   -   -  4 7 mph - 42f 25f
2:50pm  -   -   -  7 9 mph 1001.3mb 42f 25f
1:50pm 0.3ft  -  3s 9 11 mph 1000.9mb 42f 25f
12:50pm 0.3ft  -  2s 9 11 mph 1000.9mb 42f 25f
11:50am 0.3ft  -  2s 9 11 mph 1000.8mb 42f 25f
10:50am 0.3ft  -  2s 7 9 mph 1000.5mb 43f 24f
9:50am 0.3ft  -  2s 9 11 mph 1000.2mb 43f 24f
8:50am 0.3ft  -  3s 9 11 mph 999.9mb 43f 24f
7:50am 0.3ft  -  2s 9 11 mph 999.2mb 43f 24f
6:50am 0.7ft  -  3s 11 13 mph 998.4mb 43f 24f
5:50am 0.7ft  -  3s 11 16 mph 997.6mb 43f 25f
4:50am 1.3ft 2s 3s 13 18 mph 996.8mb 42f 25f
3:50am 1.6ft 3s 3s 22 25 mph 995.7mb 42f 25f
2:50am  -   -   -  27 31 mph 994.9mb 42f 22f
1:50am 2.5ft 3s 3s 29 34 mph 994.2mb 42f 23f
12:50am  -   -   -  29 36 mph 993.7mb 42f 24f
Thu 01/19 11:50pm  -   -   -  29
mph
993.5mb - 24f
10:50pm  -   -   -  31 36 mph 992.8mb 42f 24f
9:50pm  -   -   -  34 38 mph 992.3mb 42f 22f
8:50pm  -   -   -  29 36 mph 991.8mb 43f 22f
7:50pm 2.5ft 3s 3s 31 38 mph 990.7mb 43f 22f
6:50pm  -   -   -  31 40 mph 989.6mb 43f 22f
5:50pm 3ft 4s 3s 34 40 mph 988.6mb 43f 21f
4:50pm 3ft 4s 3s 34 43 mph 987.2mb 43f 21f
3:50pm 3.5ft 4s 4s 38 49 mph 985.8mb 43f 22f
2:50pm  -   -   -  38 47 mph 984.8mb 42f 21f
1:50pm  -   -   -  36 45 mph 984.1mb 42f 21f
12:50pm  -   -   -  36 49 mph 983.9mb 43f 20f
11:50am  -   -   -  38 45 mph 983.2mb 43f 19f
10:50am 3.5ft 4s 4s 36 45 mph 982.8mb 43f 20f
9:50am 3.5ft 4s 3s 36 45 mph 982.6mb 43f 20f
8:50am  -   -   -  36 47 mph 981.9mb 43f 19f
7:50am 4.5ft 4s 4s 40 51 mph 981mb 43f 19f
6:50am  -   -   -  38 49 mph 980.9mb 43f 19f
5:50am 4ft 4s 4s 38 49 mph 980.8mb 43f 19f
4:50am 4.5ft 4s 4s 38 47 mph 980.8mb 43f 19f
3:50am 4.5ft 4s 4s 38 49 mph 980.4mb 43f 19f
2:50am  -   -   -  38 47 mph 980.4mb 43f 19f
1:50am 4.5ft 4s 4s 40 47 mph 980.4mb 43f 18f
12:50am  -   -   -  38 47 mph 980.4mb 43f 18f
Wed 01/18 11:50pm  -   -   -  38 47 mph 980.6mb 42f 18f
10:50pm  -   -   -  40 47 mph 981.1mb 42f 17f
9:50pm 4.5ft 4s 3s 40 49 mph 981.3mb 42f 17f
8:50pm  -   -   -  38 49 mph 981.6mb 43f 18f
7:50pm  -   -   -  40 49 mph 981.4mb 43f 18f
6:50pm 4ft 4s 3s 38 45 mph 981.7mb 43f 17f
5:50pm 3.5ft 4s 3s 36 45 mph 981.5mb 43f 18f
4:50pm 4ft 4s 3s 36 45 mph 981.7mb 43f 18f
3:50pm 3.5ft 4s 3s 34 45 mph 982.1mb 43f 19f
2:50pm 3.5ft 4s 3s 36 43 mph 982.1mb 43f 19f
1:50pm 3.5ft 3s 3s 36 45 mph 982.6mb 43f 18f
12:50pm 3.5ft 4s 3s 34 43 mph 983.4mb 43f 19f
11:50am 3.5ft 4s 3s 36 43 mph 984.2mb 43f 18f
10:50am 2.5ft 3s 3s 31 38 mph 985.4mb 43f 17f
9:50am 2.5ft 3s 3s 31 40 mph 986.1mb 43f 18f
8:50am 2.5ft 3s 3s 29 36 mph 986.8mb 42f 18f
7:50am 2.5ft 3s 3s 29 34 mph 987.2mb 42f 19f
6:50am 2.5ft 3s 3s 31 36 mph 987.4mb 42f 19f
5:50am 2.5ft 3s 3s 31 38 mph 987.4mb 42f 19f
4:50am 2.5ft 3s 3s 27 34 mph 987.6mb 42f 20f
3:50am 2.5ft 4s 3s 27 34 mph 987.8mb 42f 20f
2:50am 2ft 3s 3s 29 36 mph 987.8mb 42f 20f
1:50am 1.6ft 3s 3s 25 31 mph 988.2mb 42f 20f
12:50am 1.6ft 3s 3s 25 31 mph 988.5mb 42f 20f
Tue 01/17 11:50pm 1.6ft 3s 3s 25 29 mph 988.7mb 42f 20f
10:50pm 1.3ft 3s 3s 22 27 mph 989.1mb 42f 21f
9:50pm 1ft 3s 3s 18 25 mph 989.5mb 42f 21f
8:50pm 1.3ft 3s 3s 16 25 mph 989.7mb 42f 20f
7:50pm 1.3ft 3s 3s 20 25 mph 989.4mb 42f 20f
6:50pm 1.3ft 2s 3s 25 31 mph 988.8mb 42f 20f
5:50pm 1.6ft 3s 3s 25 31 mph 987.9mb 42f 20f
4:50pm 2ft 3s 3s 25 29 mph 987.3mb 42f 20f
3:50pm 1.6ft 3s 3s 25 29 mph 986.5mb 42f 21f
2:50pm 1.6ft 3s 3s 25 27 mph 985.9mb 42f 21f
1:50pm 1.3ft 3s 3s 22 27 mph 985.3mb 42f 22f
12:50pm 1.3ft 3s 3s 20 25 mph 985mb 42f 21f
11:50am 1.3ft 3s 3s 20 27 mph 984.1mb 42f 22f
10:50am 1.6ft 3s 3s 20 27 mph 983.2mb 41f 23f
9:50am 1.6ft 3s 3s 22 27 mph 982.1mb 42f 23f
8:50am 1.3ft 3s 3s 25 29 mph 980.7mb 42f 23f